Time;durP1;ratioP1;P1;durP2;ratioP2;P2;SDS_P1;SDS_P2;PMS_P1;PMS_P2;Temp;Humidity;BMP_temperature;BMP_pressure;BME280_temperature;BME280_humidity;BME280_pressure;Samples;Min_cycle;Max_cycle;Signal;HPM_P1;HPM_P2
2021/01/13 00:00:01;;;;;;;1.92;1.63;;;5.20;99.90;;;;;;5053127;28;20417;-82
2021/01/13 00:02:26;;;;;;;1.70;1.60;;;3.30;99.90;;;;;;5052108;28;20872;-81
2021/01/13 00:04:52;;;;;;;1.57;1.47;;;3.40;99.90;;;;;;5051253;28;20401;-82
2021/01/13 00:07:18;;;;;;;2.03;1.67;;;3.80;99.90;;;;;;5050355;28;20774;-83
2021/01/13 00:09:44;;;;;;;1.97;1.80;;;4.40;99.90;;;;;;5052849;28;20382;-82
2021/01/13 00:12:10;;;;;;;2.10;1.90;;;5.40;99.90;;;;;;5052568;28;20400;-81
2021/01/13 00:14:37;;;;;;;1.70;1.60;;;4.90;99.90;;;;;;5051654;28;20382;-81
2021/01/13 00:17:05;;;;;;;2.30;1.80;;;2.90;99.90;;;;;;5051031;28;20946;-81
2021/01/13 00:19:31;;;;;;;2.63;1.77;;;3.20;99.90;;;;;;5051459;28;20385;-81
2021/01/13 00:21:57;;;;;;;2.23;1.87;;;3.30;99.90;;;;;;5052016;28;20386;-81
2021/01/13 00:24:24;;;;;;;1.63;1.53;;;3.90;99.90;;;;;;5051489;28;20455;-81
2021/01/13 00:26:54;;;;;;;2.10;1.90;;;4.90;99.90;;;;;;5046272;28;20422;-81
2021/01/13 00:29:20;;;;;;;2.50;2.10;;;4.40;99.90;;;;;;5031340;28;20378;-82
2021/01/13 00:31:46;;;;;;;2.28;1.60;;;3.50;99.90;;;;;;5029790;28;20413;-82
2021/01/13 00:34:13;;;;;;;2.23;1.63;;;3.50;99.90;;;;;;5030878;28;20383;-82
2021/01/13 00:36:39;;;;;;;1.40;1.30;;;3.50;99.90;;;;;;5031201;28;20449;-82
2021/01/13 00:39:06;;;;;;;1.70;1.60;;;3.10;99.90;;;;;;5030708;28;20875;-82
2021/01/13 00:41:36;;;;;;;1.90;1.70;;;3.10;99.90;;;;;;5034510;28;20389;-82
2021/01/13 00:44:02;;;;;;;2.40;1.92;;;3.30;99.90;;;;;;5051953;28;20791;-82
2021/01/13 00:46:39;;;;;;;2.17;1.80;;;3.00;99.90;;;;;;5058470;28;20496;-83
2021/01/13 00:49:05;;;;;;;1.88;1.55;;;5.60;99.90;;;;;;5071565;28;20430;-82
2021/01/13 00:51:36;;;;;;;1.92;1.73;;;4.10;99.90;;;;;;5071265;28;20379;-82
2021/01/13 00:54:03;;;;;;;1.70;1.60;;;3.60;99.90;;;;;;5071633;28;20434;-82
2021/01/13 00:56:29;;;;;;;2.30;2.10;;;3.00;99.90;;;;;;5069292;28;20396;-82
2021/01/13 00:58:56;;;;;;;2.20;1.90;;;3.10;99.90;;;;;;5071393;28;20395;-82
2021/01/13 01:01:24;;;;;;;3.83;2.30;;;3.20;99.90;;;;;;5070547;28;20383;-82
2021/01/13 01:03:49;;;;;;;2.85;2.05;;;4.80;99.90;;;;;;5071521;28;20384;-82
2021/01/13 01:06:15;;;;;;;3.10;2.80;;;3.10;99.90;;;;;;5071310;28;20457;-82
2021/01/13 01:08:41;;;;;;;2.72;2.15;;;4.10;99.90;;;;;;5070849;28;20384;-83
2021/01/13 01:11:06;;;;;;;2.08;1.88;;;3.10;99.90;;;;;;5070052;28;20384;-82
2021/01/13 01:13:32;;;;;;;3.10;2.00;;;3.40;99.90;;;;;;5070188;28;20399;-83
2021/01/13 01:15:58;;;;;;;3.23;2.40;;;5.10;99.90;;;;;;5071963;28;20879;-83
2021/01/13 01:18:23;;;;;;;3.70;2.30;;;3.90;99.90;;;;;;5071066;28;20387;-83
2021/01/13 01:20:49;;;;;;;2.53;2.17;;;4.00;99.90;;;;;;5072685;28;20395;-82
2021/01/13 01:23:14;;;;;;;2.10;1.90;;;3.60;99.90;;;;;;5073911;28;20395;-82
2021/01/13 01:25:40;;;;;;;3.90;2.27;;;2.90;99.90;;;;;;5072896;28;20444;-82
2021/01/13 01:28:06;;;;;;;2.77;2.57;;;4.70;99.90;;;;;;5056420;28;20485;-82
2021/01/13 01:30:32;;;;;;;3.28;2.58;;;3.20;99.90;;;;;;5050561;28;20806;-82
2021/01/13 01:32:58;;;;;;;2.40;2.10;;;3.70;99.90;;;;;;5050812;28;20699;-81
2021/01/13 01:35:24;;;;;;;1.90;1.80;;;4.40;99.90;;;;;;5050933;28;20456;-83
2021/01/13 01:37:49;;;;;;;1.90;1.80;;;2.80;99.90;;;;;;5049982;28;20440;-82
2021/01/13 01:40:17;;;;;;;2.58;2.10;;;4.50;99.90;;;;;;5049771;28;20389;-82
2021/01/13 01:42:51;;;;;;;2.70;2.30;;;4.60;99.90;;;;;;5063279;28;20392;-83
2021/01/13 01:45:19;;;;;;;3.10;2.00;;;2.60;99.90;;;;;;5070860;28;20432;-83
2021/01/13 01:48:00;;;;;;;2.60;2.40;;;2.70;99.90;;;;;;5070050;28;20430;-81
2021/01/13 01:50:33;;;;;;;2.40;2.00;;;4.70;99.90;;;;;;5068691;28;20413;-82
2021/01/13 01:53:13;;;;;;;2.97;2.30;;;2.80;99.90;;;;;;5071227;28;20414;-82
2021/01/13 01:55:50;;;;;;;3.28;2.35;;;4.90;99.90;;;;;;5069893;28;20428;-82
2021/01/13 01:58:25;;;;;;;2.80;2.17;;;2.60;99.90;;;;;;5070189;28;20423;-81
2021/01/13 02:00:54;;;;;;;3.20;2.00;;;3.50;99.90;;;;;;5070825;28;20505;-81
2021/01/13 02:03:29;;;;;;;1.80;1.70;;;2.90;99.90;;;;;;5070599;28;20470;-83
2021/01/13 02:06:03;;;;;;;2.13;1.92;;;2.90;99.90;;;;;;5070492;28;20386;-82
2021/01/13 02:08:39;;;;;;;2.22;2.08;;;4.70;99.90;;;;;;5070153;28;20415;-82
2021/01/13 02:11:10;;;;;;;2.30;2.10;;;2.90;99.90;;;;;;5059148;28;20507;-82
2021/01/13 02:13:36;;;;;;;2.65;2.20;;;2.20;99.90;;;;;;5050217;28;20774;-83
2021/01/13 02:16:02;;;;;;;3.17;2.05;;;2.30;99.90;;;;;;5049051;28;20484;-83
2021/01/13 02:18:34;;;;;;;2.30;1.95;;;4.10;99.90;;;;;;5050494;28;20420;-83
2021/01/13 02:21:03;;;;;;;2.70;1.90;;;2.30;99.90;;;;;;5051837;28;20385;-82
2021/01/13 02:23:31;;;;;;;2.10;1.90;;;2.20;99.90;;;;;;5050750;28;20877;-82
2021/01/13 02:26:18;;;;;;;2.30;1.90;;;2.20;99.90;;;;;;5050774;28;20464;-82
2021/01/13 02:28:55;;;;;;;3.40;1.80;;;2.40;99.90;;;;;;5030270;28;20491;-82
2021/01/13 02:31:33;;;;;;;2.60;2.20;;;2.90;99.90;;;;;;5030942;28;20820;-83
2021/01/13 02:34:19;;;;;;;1.95;1.77;;;2.40;99.90;;;;;;5031031;28;20421;-82
2021/01/13 02:37:11;;;;;;;2.40;1.67;;;2.30;99.90;;;;;;5030211;28;20387;-83
2021/01/13 02:39:41;;;;;;;2.40;2.05;;;2.30;99.90;;;;;;5030256;28;20428;-83
2021/01/13 02:42:13;;;;;;;2.00;1.70;;;2.60;99.90;;;;;;5046546;28;20712;-81
2021/01/13 02:44:49;;;;;;;2.10;1.90;;;4.40;99.90;;;;;;5070133;28;20787;-81
2021/01/13 02:47:21;;;;;;;2.45;1.88;;;2.00;99.90;;;;;;5070098;28;20411;-81
2021/01/13 02:49:51;;;;;;;1.83;1.60;;;3.80;99.90;;;;;;5070130;28;20515;-81
2021/01/13 02:52:19;;;;;;;2.20;2.00;;;2.40;99.90;;;;;;5070468;28;20440;-80
2021/01/13 02:54:53;;;;;;;2.40;2.20;;;3.00;99.90;;;;;;5070656;28;20390;-82
2021/01/13 02:57:25;;;;;;;1.60;1.50;;;1.80;99.90;;;;;;5074178;28;20414;-82
2021/01/13 02:59:56;;;;;;;3.28;1.90;;;4.30;99.90;;;;;;5074482;28;20823;-81
2021/01/13 03:02:33;;;;;;;1.60;1.30;;;4.70;99.90;;;;;;5074196;28;20380;-81
2021/01/13 03:04:59;;;;;;;2.15;1.70;;;2.20;99.90;;;;;;5073134;28;20419;-80
2021/01/13 03:07:26;;;;;;;1.87;1.73;;;2.10;99.90;;;;;;5073642;28;20446;-82
2021/01/13 03:09:57;;;;;;;2.35;1.90;;;1.70;99.90;;;;;;5072566;28;20394;-82
2021/01/13 03:12:26;;;;;;;2.30;2.10;;;3.50;99.90;;;;;;5073931;28;20429;-82
2021/01/13 03:14:57;;;;;;;2.20;2.03;;;2.40;99.90;;;;;;5072896;28;20410;-82
2021/01/13 03:17:30;;;;;;;2.30;2.10;;;3.60;99.90;;;;;;5074004;28;20379;-81
2021/01/13 03:20:32;;;;;;;2.45;1.92;;;2.50;99.90;;;;;;5073738;28;20387;-81
2021/01/13 03:23:19;;;;;;;2.15;1.95;;;2.30;99.90;;;;;;5073555;28;20380;-81
2021/01/13 03:25:53;;;;;;;2.23;2.03;;;2.10;99.90;;;;;;5073550;28;20392;-82
2021/01/13 03:28:23;;;;;;;2.97;2.10;;;1.90;99.90;;;;;;5055665;28;20377;-82
2021/01/13 03:30:50;;;;;;;5.10;1.80;;;4.00;99.90;;;;;;5053225;28;20453;-81
2021/01/13 03:33:16;;;;;;;2.30;2.10;;;2.30;99.90;;;;;;5053992;28;20413;-82
2021/01/13 03:35:52;;;;;;;2.57;1.60;;;2.00;99.90;;;;;;5051830;28;20390;-82
2021/01/13 03:38:19;;;;;;;1.90;1.50;;;3.20;99.90;;;;;;5053316;28;20488;-82
2021/01/13 03:40:47;;;;;;;3.13;1.50;;;1.80;99.90;;;;;;5053024;28;20385;-82
2021/01/13 03:43:21;;;;;;;2.35;1.95;;;2.90;99.90;;;;;;5071105;28;20476;-82
2021/01/13 03:45:54;;;;;;;2.20;1.65;;;1.90;99.90;;;;;;5072601;28;20760;-82
2021/01/13 03:48:48;;;;;;;2.37;1.70;;;2.20;99.90;;;;;;5073374;28;20475;-81
2021/01/13 03:51:32;;;;;;;1.70;1.60;;;1.90;99.90;;;;;;5073351;28;20796;-81
2021/01/13 03:54:03;;;;;;;1.60;1.50;;;1.40;99.90;;;;;;5072999;28;20398;-81
2021/01/13 03:56:39;;;;;;;1.80;1.27;;;1.90;99.90;;;;;;5072620;28;20466;-81
2021/01/13 03:59:13;;;;;;;3.00;2.03;;;4.40;99.90;;;;;;5072158;28;20736;-81
2021/01/13 04:01:51;;;;;;;3.13;1.90;;;1.70;99.90;;;;;;5072486;28;20384;-80
2021/01/13 04:04:21;;;;;;;2.80;1.80;;;1.90;99.90;;;;;;5073108;28;20395;-81
2021/01/13 04:06:57;;;;;;;2.10;1.75;;;3.60;99.90;;;;;;5071913;28;20772;-81
2021/01/13 04:09:23;;;;;;;2.17;1.97;;;1.60;99.90;;;;;;5072997;28;20388;-81
2021/01/13 04:11:49;;;;;;;2.58;2.28;;;1.90;99.90;;;;;;5072519;28;20414;-82
2021/01/13 04:14:18;;;;;;;2.03;1.60;;;1.70;99.90;;;;;;5072546;28;20738;-82
2021/01/13 04:16:44;;;;;;;4.60;2.00;;;2.00;99.90;;;;;;5070941;28;20416;-82
2021/01/13 04:19:10;;;;;;;2.67;2.07;;;1.80;99.90;;;;;;5072397;28;20881;-82
2021/01/13 04:21:36;;;;;;;1.70;1.60;;;1.60;99.90;;;;;;5071815;28;20380;-82
2021/01/13 04:24:03;;;;;;;2.03;1.60;;;3.90;99.90;;;;;;5072530;28;20379;-82
2021/01/13 04:26:30;;;;;;;2.63;1.70;;;2.10;99.90;;;;;;5068011;28;20409;-85
2021/01/13 04:28:56;;;;;;;2.00;1.60;;;2.00;99.90;;;;;;5052186;28;20385;-82
2021/01/13 04:31:25;;;;;;;3.03;1.70;;;1.70;99.90;;;;;;5052797;28;20742;-82
2021/01/13 04:33:52;;;;;;;1.83;1.50;;;1.70;99.90;;;;;;5051726;28;20481;-82
2021/01/13 04:36:19;;;;;;;2.30;2.10;;;1.60;99.90;;;;;;5052418;28;20539;-81
2021/01/13 04:38:46;;;;;;;2.08;1.88;;;3.70;99.90;;;;;;5051574;28;20382;-82
2021/01/13 04:41:14;;;;;;;1.80;1.52;;;2.00;99.90;;;;;;5052556;28;20439;-82
2021/01/13 04:43:50;;;;;;;2.30;1.80;;;2.70;99.90;;;;;;5071824;28;20399;-82
2021/01/13 04:46:26;;;;;;;3.30;2.17;;;1.70;99.90;;;;;;5071871;28;20419;-82
2021/01/13 04:49:01;;;;;;;2.30;2.00;;;1.90;99.90;;;;;;5071405;28;20439;-82
2021/01/13 04:51:28;;;;;;;2.53;2.33;;;2.50;99.90;;;;;;5071976;28;20391;-82
2021/01/13 04:53:55;;;;;;;2.00;1.77;;;1.90;99.90;;;;;;5070019;28;20387;-82
2021/01/13 04:56:24;;;;;;;2.88;2.10;;;1.50;99.90;;;;;;5072000;28;20398;-82
2021/01/13 04:59:15;;;;;;;2.72;2.20;;;1.50;99.90;;;;;;5071580;28;20516;-82
2021/01/13 05:01:58;;;;;;;2.20;1.90;;;1.00;99.90;;;;;;5071569;28;20433;-82
2021/01/13 05:04:27;;;;;;;2.30;2.10;;;3.70;99.90;;;;;;5072308;28;20771;-81
2021/01/13 05:07:05;;;;;;;2.70;2.13;;;1.30;99.90;;;;;;5071401;28;20430;-82
2021/01/13 05:09:43;;;;;;;2.60;1.80;;;1.60;99.90;;;;;;5071762;28;20856;-82
2021/01/13 05:12:11;;;;;;;2.88;2.30;;;2.10;99.90;;;;;;5071500;28;20406;-82
2021/01/13 05:14:44;;;;;;;2.30;2.10;;;2.10;99.90;;;;;;5071512;28;20384;-81
2021/01/13 05:17:33;;;;;;;3.17;2.20;;;1.30;99.90;;;;;;5071347;28;20383;-81
2021/01/13 05:20:25;;;;;;;2.75;1.90;;;1.50;99.90;;;;;;5067806;28;20395;-82
2021/01/13 05:22:52;;;;;;;2.95;2.15;;;1.40;99.90;;;;;;5071232;28;20384;-82
2021/01/13 05:25:33;;;;;;;3.40;2.00;;;1.60;99.90;;;;;;5071841;28;20521;-81
2021/01/13 05:27:58;;;;;;;2.88;2.25;;;1.70;99.90;;;;;;5055790;28;20413;-81
2021/01/13 05:30:30;;;;;;;2.40;2.20;;;1.70;99.90;;;;;;5052205;28;20388;-81
2021/01/13 05:32:56;;;;;;;2.55;2.03;;;1.90;99.90;;;;;;5051715;28;20385;-81
2021/01/13 05:35:28;;;;;;;4.60;2.40;;;1.60;99.90;;;;;;5050792;28;20868;-81
2021/01/13 05:38:06;;;;;;;2.97;1.90;;;2.40;99.90;;;;;;5050550;28;20392;-82
2021/01/13 05:40:46;;;;;;;2.55;2.20;;;1.50;99.90;;;;;;5051764;28;20385;-81
2021/01/13 05:43:12;;;;;;;2.63;2.30;;;1.60;99.90;;;;;;5068537;28;20502;-82
2021/01/13 05:45:39;;;;;;;4.20;3.60;;;3.50;99.90;;;;;;5070358;28;20402;-81
2021/01/13 05:48:20;;;;;;;7.80;4.10;;;2.00;99.90;;;;;;5071596;28;20461;-81
2021/01/13 05:50:46;;;;;;;7.07;3.72;;;1.40;99.90;;;;;;5057035;28;20394;-81
2021/01/13 05:53:13;;;;;;;4.75;2.60;;;2.80;99.90;;;;;;5049439;28;20420;-81
2021/01/13 05:55:46;;;;;;;2.45;2.25;;;2.20;99.90;;;;;;5050656;28;20468;-81
2021/01/13 05:58:13;;;;;;;4.20;2.50;;;2.90;99.90;;;;;;5051325;28;20380;-80
2021/01/13 06:00:39;;;;;;;4.25;2.50;;;1.70;99.90;;;;;;5050256;28;20385;-81
2021/01/13 06:03:05;;;;;;;4.00;2.70;;;1.60;99.90;;;;;;5049796;28;20388;-81
2021/01/13 06:05:33;;;;;;;2.65;2.45;;;1.60;99.90;;;;;;5050829;28;20473;-80
2021/01/13 06:08:02;;;;;;;2.40;2.20;;;1.60;99.90;;;;;;5049913;28;20775;-82
2021/01/13 06:10:37;;;;;;;3.65;2.70;;;1.50;99.90;;;;;;5051036;28;20407;-81
2021/01/13 06:13:05;;;;;;;3.00;2.75;;;1.80;99.90;;;;;;5050904;28;20415;-81
2021/01/13 06:15:32;;;;;;;2.90;2.42;;;1.40;99.90;;;;;;5050910;28;20468;-81
2021/01/13 06:17:59;;;;;;;2.60;2.40;;;2.10;99.90;;;;;;5050234;28;20529;-81
2021/01/13 06:20:27;;;;;;;3.97;2.60;;;1.40;99.90;;;;;;5051097;28;20916;-81
2021/01/13 06:22:54;;;;;;;3.20;2.83;;;1.00;99.90;;;;;;5048649;28;20386;-80
2021/01/13 06:25:22;;;;;;;3.00;2.60;;;1.60;99.90;;;;;;5050855;28;20380;-81
2021/01/13 06:27:56;;;;;;;2.72;2.35;;;3.50;99.90;;;;;;5050210;28;20417;-79
2021/01/13 06:30:39;;;;;;;2.70;2.40;;;1.60;99.90;;;;;;5052434;28;20378;-80
2021/01/13 06:33:06;;;;;;;4.15;2.67;;;1.70;99.90;;;;;;5054861;28;20392;-81
2021/01/13 06:35:41;;;;;;;3.45;2.38;;;1.60;99.90;;;;;;5054866;28;20424;-80
2021/01/13 06:38:14;;;;;;;3.67;2.95;;;3.40;99.90;;;;;;5053990;28;20397;-82
2021/01/13 06:40:41;;;;;;;3.00;2.70;;;1.50;99.90;;;;;;5054665;28;20404;-81
2021/01/13 06:43:14;;;;;;;4.70;3.10;;;3.10;99.90;;;;;;5055620;28;20401;-81
2021/01/13 06:45:40;;;;;;;4.00;3.00;;;1.50;99.90;;;;;;5054134;28;20781;-82
2021/01/13 06:48:07;;;;;;;3.72;3.28;;;1.40;99.90;;;;;;5054950;28;20439;-81
2021/01/13 06:50:37;;;;;;;6.68;3.40;;;1.30;99.90;;;;;;5054859;28;20731;-83
2021/01/13 06:53:10;;;;;;;4.43;3.30;;;1.20;99.90;;;;;;5054126;28;20793;-81
2021/01/13 06:55:38;;;;;;;3.40;3.10;;;1.60;99.90;;;;;;5052347;28;20424;-81
2021/01/13 06:58:15;;;;;;;3.42;2.85;;;1.10;99.90;;;;;;5034263;28;20387;-81
2021/01/13 07:00:42;;;;;;;4.82;3.45;;;1.60;99.90;;;;;;5034058;28;20384;-84
2021/01/13 07:03:30;;;;;;;3.22;2.92;;;3.50;99.90;;;;;;5038565;28;20423;-82
2021/01/13 07:05:59;;;;;;;3.92;3.30;;;1.70;99.90;;;;;;5054486;28;20890;-80
2021/01/13 07:08:26;;;;;;;3.70;3.03;;;1.50;99.90;;;;;;5067804;28;20380;-81
2021/01/13 07:11:05;;;;;;;3.33;3.03;;;1.20;99.90;;;;;;5071783;28;20399;-82
2021/01/13 07:13:41;;;;;;;3.50;3.20;;;1.90;99.90;;;;;;5034496;28;20445;-81
2021/01/13 07:16:08;;;;;;;4.65;3.00;;;1.60;99.90;;;;;;5032876;28;20395;-81
2021/01/13 07:18:35;;;;;;;3.72;3.20;;;2.70;99.90;;;;;;5034172;28;20395;-81
2021/01/13 07:21:08;;;;;;;4.00;3.60;;;1.60;99.90;;;;;;5057564;28;20375;-82
2021/01/13 07:23:35;;;;;;;4.50;3.80;;;1.20;99.90;;;;;;5052787;28;20788;-82
2021/01/13 07:26:01;;;;;;;4.70;3.85;;;3.60;99.90;;;;;;5053025;28;20382;-81
2021/01/13 07:28:27;;;;;;;6.00;3.83;;;1.50;99.90;;;;;;5053425;28;20427;-81
2021/01/13 07:30:54;;;;;;;7.65;4.72;;;1.30;99.90;;;;;;5053436;28;20377;-81
2021/01/13 07:33:20;;;;;;;7.88;4.35;;;1.50;99.90;;;;;;5053909;28;20381;-81
2021/01/13 07:35:48;;;;;;;7.32;4.93;;;3.60;99.90;;;;;;5053011;28;20850;-82
2021/01/13 07:38:18;;;;;;;4.05;3.60;;;1.30;99.90;;;;;;5052976;28;20411;-80
2021/01/13 07:40:59;;;;;;;6.57;4.13;;;2.00;99.90;;;;;;5040388;28;20378;-80
2021/01/13 07:44:02;;;;;;;5.85;4.38;;;1.70;99.90;;;;;;5051910;28;20878;-81
2021/01/13 07:46:29;;;;;;;5.28;4.43;;;1.70;99.90;;;;;;5053646;28;20421;-77
2021/01/13 07:49:19;;;;;;;5.28;4.43;;;1.70;99.90;;;;;;5053272;28;20389;-82
2021/01/13 07:51:58;;;;;;;4.95;3.67;;;1.50;99.90;;;;;;5053407;28;20393;-81
2021/01/13 07:54:31;;;;;;;5.67;4.67;;;2.10;99.90;;;;;;5054497;28;20401;-80
2021/01/13 07:56:58;;;;;;;3.88;3.47;;;1.70;99.90;;;;;;5052653;28;20397;-80
2021/01/13 07:59:42;;;;;;;5.40;3.80;;;1.50;99.90;;;;;;5053618;28;20436;-81
2021/01/13 08:02:29;;;;;;;5.47;4.60;;;1.60;99.90;;;;;;5053487;28;20929;-81
2021/01/13 08:05:12;;;;;;;4.53;3.90;;;1.90;99.90;;;;;;5053167;28;20385;-81
2021/01/13 08:07:40;;;;;;;4.50;4.10;;;2.00;99.90;;;;;;5054065;28;20413;-79
2021/01/13 08:10:07;;;;;;;7.38;4.28;;;2.00;99.90;;;;;;5053347;28;20396;-82
2021/01/13 08:12:54;;;;;;;6.07;4.60;;;1.80;99.90;;;;;;5054160;28;20389;-78
2021/01/13 08:15:55;;;;;;;5.60;4.72;;;2.00;99.90;;;;;;5052922;28;20428;-82
2021/01/13 08:18:55;;;;;;;6.20;4.80;;;;;;;;;;5054891;28;20389;-80
2021/01/13 08:21:40;;;;;;;4.85;4.18;;;2.80;99.90;;;;;;5057570;28;20378;-82
2021/01/13 08:24:24;;;;;;;5.20;4.40;;;2.00;99.90;;;;;;5061605;28;20392;-80
2021/01/13 08:26:51;;;;;;;7.03;4.80;;;2.10;99.90;;;;;;5062422;28;20413;-81
2021/01/13 08:29:21;;;;;;;5.20;4.28;;;2.30;99.90;;;;;;5063491;28;20389;-81
2021/01/13 08:32:06;;;;;;;5.57;4.40;;;3.40;99.90;;;;;;5061648;28;20394;-80
2021/01/13 08:35:01;;;;;;;8.30;5.00;;;2.30;99.90;;;;;;5058483;28;20426;-83
2021/01/13 08:37:34;;;;;;;5.97;4.53;;;4.10;99.90;;;;;;5054786;28;20426;-79
2021/01/13 08:40:28;;;;;;;5.07;3.57;;;4.40;99.90;;;;;;5053548;28;20424;-81
2021/01/13 08:43:17;;;;;;;5.70;4.10;;;2.50;99.90;;;;;;5052218;28;20962;-82
2021/01/13 08:45:48;;;;;;;4.70;3.92;;;2.50;99.90;;;;;;5053919;28;20421;-81
2021/01/13 08:48:17;;;;;;;5.05;4.22;;;2.80;99.90;;;;;;5053031;28;20454;-81
2021/01/13 08:51:06;;;;;;;5.05;4.00;;;2.80;99.90;;;;;;5053635;28;20397;-81
2021/01/13 08:53:33;;;;;;;4.80;3.50;;;3.20;99.90;;;;;;5053020;28;20801;-81
2021/01/13 08:56:00;;;;;;;4.13;3.33;;;3.00;99.90;;;;;;5052721;28;20873;-82
2021/01/13 08:58:28;;;;;;;5.17;4.27;;;2.70;99.90;;;;;;5053118;28;20382;-81
2021/01/13 09:01:05;;;;;;;4.28;3.50;;;3.20;99.90;;;;;;5053491;28;20446;-81
2021/01/13 09:03:38;;;;;;;4.18;3.30;;;2.80;99.90;;;;;;5053047;28;20409;-81
2021/01/13 09:06:24;;;;;;;5.63;3.47;;;3.50;99.90;;;;;;5052225;28;20425;-80
2021/01/13 09:08:57;;;;;;;3.90;3.50;;;2.70;99.90;;;;;;5051592;28;20475;-80
2021/01/13 09:11:35;;;;;;;5.30;4.20;;;3.10;99.90;;;;;;5052132;28;20411;-81
2021/01/13 09:14:18;;;;;;;5.53;4.80;;;2.80;99.90;;;;;;5051644;28;20405;-80
2021/01/13 09:16:55;;;;;;;8.73;5.40;;;2.80;99.90;;;;;;5051929;28;20400;-81
2021/01/13 09:19:30;;;;;;;5.80;5.20;;;4.60;99.90;;;;;;5052106;28;20400;-80
2021/01/13 09:22:03;;;;;;;5.47;4.50;;;2.70;99.90;;;;;;5051696;28;20473;-80
2021/01/13 09:24:36;;;;;;;7.30;4.90;;;2.80;99.90;;;;;;5052174;28;20377;-80
2021/01/13 09:27:04;;;;;;;5.40;4.65;;;2.80;99.90;;;;;;5051305;28;20449;-81
2021/01/13 09:29:51;;;;;;;5.75;4.90;;;3.00;99.90;;;;;;5051800;28;20460;-80
2021/01/13 09:32:19;;;;;;;7.73;5.47;;;3.10;99.90;;;;;;5051663;28;20476;-81
2021/01/13 09:34:46;;;;;;;4.03;3.63;;;4.80;99.90;;;;;;5050352;28;20397;-81
2021/01/13 09:37:13;;;;;;;4.65;3.60;;;3.20;99.90;;;;;;5051748;28;20388;-81
2021/01/13 09:39:40;;;;;;;5.40;3.03;;;3.30;99.90;;;;;;5051847;28;20703;-80
2021/01/13 09:42:09;;;;;;;4.63;3.30;;;3.40;99.90;;;;;;5050650;28;20388;-81
2021/01/13 09:44:37;;;;;;;5.20;3.55;;;3.60;99.90;;;;;;5051215;28;20397;-80
2021/01/13 09:47:25;;;;;;;4.07;3.38;;;3.60;99.90;;;;;;5065564;28;20417;-81
2021/01/13 09:49:55;;;;;;;3.45;2.95;;;3.70;99.90;;;;;;5050875;28;20388;-81
2021/01/13 09:52:21;;;;;;;6.50;3.60;;;3.70;99.90;;;;;;5051352;28;20381;-80
2021/01/13 09:54:51;;;;;;;3.90;3.30;;;3.70;99.90;;;;;;5051475;28;20523;-80
2021/01/13 09:57:18;;;;;;;4.57;3.40;;;3.80;99.90;;;;;;5051008;28;20397;-82
2021/01/13 10:00:11;;;;;;;4.30;3.40;;;3.80;99.90;;;;;;5051214;28;20381;-81
2021/01/13 10:02:38;;;;;;;3.70;3.08;;;3.70;99.90;;;;;;5050922;28;20381;-79
2021/01/13 10:05:05;;;;;;;3.65;3.33;;;3.90;99.90;;;;;;5050336;28;20384;-81
2021/01/13 10:07:33;;;;;;;3.58;2.90;;;4.10;99.90;;;;;;5049334;28;20535;-80
2021/01/13 10:10:01;;;;;;;4.82;2.90;;;4.10;99.90;;;;;;5050538;28;20467;-80
2021/01/13 10:12:40;;;;;;;2.50;2.20;;;4.30;99.90;;;;;;5051207;28;20738;-82
2021/01/13 10:15:12;;;;;;;2.50;2.20;;;4.30;99.90;;;;;;5050569;28;20434;-81
2021/01/13 10:17:39;;;;;;;2.10;1.80;;;4.30;99.90;;;;;;5049492;28;20396;-81
2021/01/13 10:20:16;;;;;;;1.67;1.35;;;4.40;99.90;;;;;;5050077;28;20381;-81
2021/01/13 10:22:43;;;;;;;1.60;1.50;;;4.50;99.90;;;;;;5050761;28;20385;-80
2021/01/13 10:25:10;;;;;;;3.00;1.80;;;4.40;99.90;;;;;;5050225;28;20466;-81
2021/01/13 10:27:43;;;;;;;1.65;1.23;;;4.60;99.90;;;;;;5050512;28;20487;-80
2021/01/13 10:30:10;;;;;;;3.13;1.30;;;4.40;99.90;;;;;;5050278;28;20377;-81
2021/01/13 10:32:50;;;;;;;2.42;1.80;;;4.60;99.90;;;;;;5050848;28;20466;-79
2021/01/13 10:35:17;;;;;;;2.90;2.20;;;4.40;99.90;;;;;;5050925;28;20377;-80
2021/01/13 10:38:01;;;;;;;2.35;1.70;;;4.40;99.90;;;;;;5050698;28;20389;-80
2021/01/13 10:40:27;;;;;;;2.33;1.30;;;6.20;99.90;;;;;;5051244;28;20389;-80
2021/01/13 10:42:54;;;;;;;1.85;1.63;;;4.30;99.90;;;;;;5050368;28;20385;-80
2021/01/13 10:45:22;;;;;;;2.90;1.30;;;4.50;99.90;;;;;;5051032;28;20413;-80
2021/01/13 10:48:02;;;;;;;2.40;1.30;;;4.60;99.90;;;;;;5050725;28;20470;-79
2021/01/13 10:50:31;;;;;;;2.10;1.40;;;4.50;99.90;;;;;;5050856;28;20389;-80
2021/01/13 10:52:59;;;;;;;1.20;1.10;;;4.50;99.90;;;;;;5050058;28;20404;-79
2021/01/13 10:55:30;;;;;;;1.20;1.00;;;4.50;99.90;;;;;;5051135;28;20428;-78
2021/01/13 10:57:57;;;;;;;1.50;1.20;;;4.60;98.30;;;;;;5050170;28;20472;-80
2021/01/13 11:00:28;;;;;;;2.15;1.30;;;4.70;99.90;;;;;;5050963;28;20784;-80
2021/01/13 11:02:58;;;;;;;1.60;1.10;;;4.90;98.00;;;;;;5048960;28;20750;-79
2021/01/13 11:05:25;;;;;;;1.30;1.10;;;6.30;99.90;;;;;;5050602;28;20386;-79
2021/01/13 11:07:53;;;;;;;2.05;1.00;;;5.00;98.70;;;;;;5050455;28;20421;-79
2021/01/13 11:10:21;;;;;;;2.10;0.90;;;5.00;97.20;;;;;;5050649;28;20416;-80
2021/01/13 11:12:48;;;;;;;1.75;0.90;;;5.10;99.90;;;;;;5049022;28;20405;-80
2021/01/13 11:15:14;;;;;;;1.67;1.30;;;5.20;97.80;;;;;;5049819;28;20824;-80
2021/01/13 11:17:40;;;;;;;1.52;1.38;;;5.20;99.10;;;;;;5053982;28;20472;-80
2021/01/13 11:20:08;;;;;;;1.00;0.90;;;5.60;99.90;;;;;;5053560;28;20473;-79
2021/01/13 11:22:55;;;;;;;2.00;0.95;;;5.60;97.30;;;;;;5054107;28;20464;-79
2021/01/13 11:25:22;;;;;;;1.42;0.90;;;5.80;94.80;;;;;;5054188;28;20434;-80
2021/01/13 11:28:01;;;;;;;1.00;0.90;;;5.90;97.20;;;;;;5053864;28;20413;-80
2021/01/13 11:30:28;;;;;;;1.30;1.10;;;6.60;95.70;;;;;;5052854;28;20419;-80
2021/01/13 11:32:58;;;;;;;2.20;1.20;;;6.30;98.30;;;;;;5053134;28;20487;-83
2021/01/13 11:35:35;;;;;;;1.10;0.80;;;6.70;94.70;;;;;;5054235;28;20386;-78
2021/01/13 11:38:19;;;;;;;1.10;0.80;;;6.70;94.10;;;;;;5053175;28;20874;-78
2021/01/13 11:41:02;;;;;;;1.50;1.02;;;7.10;93.00;;;;;;5053846;28;20453;-79
2021/01/13 11:43:42;;;;;;;2.20;0.90;;;7.70;95.60;;;;;;5054055;28;20412;-79
2021/01/13 11:46:26;;;;;;;1.90;1.15;;;7.80;89.80;;;;;;5053490;28;20405;-79
2021/01/13 11:49:11;;;;;;;1.10;1.00;;;8.60;90.50;;;;;;5052617;28;20489;-79
2021/01/13 11:51:46;;;;;;;2.50;1.60;;;8.20;88.70;;;;;;5053043;28;20393;-79
2021/01/13 11:54:32;;;;;;;1.33;1.23;;;8.00;91.10;;;;;;5053153;28;20382;-79
2021/01/13 11:57:17;;;;;;;1.20;1.00;;;8.80;91.10;;;;;;5052922;28;20398;-81
2021/01/13 11:59:43;;;;;;;1.48;1.10;;;8.40;88.10;;;;;;5052556;28;20844;-81
2021/01/13 12:02:24;;;;;;;1.10;1.00;;;8.40;86.50;;;;;;5053343;28;20417;-79
2021/01/13 12:04:50;;;;;;;1.48;1.30;;;8.00;83.60;;;;;;5053999;28;20384;-78
2021/01/13 12:07:16;;;;;;;1.50;1.20;;;7.60;94.10;;;;;;5053106;28;20804;-79
2021/01/13 12:09:42;;;;;;;1.50;1.40;;;8.60;88.00;;;;;;5053955;28;20893;-78
2021/01/13 12:12:09;;;;;;;2.03;1.50;;;8.50;86.40;;;;;;5053853;28;20393;-82
2021/01/13 12:15:00;;;;;;;1.88;1.20;;;8.60;85.40;;;;;;5054383;28;20381;-80
2021/01/13 12:17:26;;;;;;;1.58;1.33;;;8.90;84.80;;;;;;5054740;28;20479;-78
2021/01/13 12:19:51;;;;;;;1.70;1.33;;;9.50;85.20;;;;;;5068666;28;20874;-79
2021/01/13 12:22:32;;;;;;;2.17;1.40;;;8.60;89.50;;;;;;5053004;28;20417;-81
2021/01/13 12:24:58;;;;;;;1.55;1.45;;;9.20;85.90;;;;;;5053411;28;20385;-81
2021/01/13 12:27:25;;;;;;;1.77;1.48;;;10.90;86.40;;;;;;5062170;28;20407;-79
2021/01/13 12:30:10;;;;;;;2.50;1.40;;;9.90;90.10;;;;;;5066448;28;20397;-80
2021/01/13 12:32:37;;;;;;;2.80;2.10;;;7.80;87.20;;;;;;5054219;28;20394;-80
2021/01/13 12:35:05;;;;;;;1.50;1.35;;;7.80;90.90;;;;;;5068421;28;20388;-80
2021/01/13 12:37:31;;;;;;;1.67;1.17;;;;;;;;;;5072337;28;20473;-78
2021/01/13 12:40:00;;;;;;;3.05;1.58;;;8.90;92.00;;;;;;5073153;28;20368;-79
2021/01/13 12:42:30;;;;;;;2.40;1.40;;;9.10;92.40;;;;;;5066580;28;20811;-79
2021/01/13 12:44:57;;;;;;;1.70;1.20;;;8.30;91.40;;;;;;5054092;28;20416;-80
2021/01/13 12:47:27;;;;;;;2.97;1.77;;;8.80;96.90;;;;;;5051880;28;20976;-81
2021/01/13 12:49:54;;;;;;;3.08;1.35;;;7.40;96.80;;;;;;5052689;28;20939;-81
2021/01/13 12:52:20;;;;;;;2.13;1.50;;;7.00;96.90;;;;;;5051984;28;20382;-80
2021/01/13 12:54:46;;;;;;;4.00;1.50;;;6.40;94.00;;;;;;5052434;28;20432;-80
2021/01/13 12:57:12;;;;;;;3.20;1.40;;;7.20;99.10;;;;;;5052044;28;20385;-80
2021/01/13 12:59:37;;;;;;;1.60;1.20;;;6.40;94.70;;;;;;5059215;28;20375;-80
2021/01/13 13:02:03;;;;;;;1.20;1.10;;;7.80;96.00;;;;;;5071681;28;20380;-80
2021/01/13 13:04:29;;;;;;;3.95;1.50;;;6.50;96.20;;;;;;5071154;28;20390;-82
2021/01/13 13:06:55;;;;;;;1.30;1.20;;;6.70;99.00;;;;;;5072354;28;20493;-80
2021/01/13 13:09:20;;;;;;;1.80;1.20;;;6.30;95.70;;;;;;5072643;28;20383;-81
2021/01/13 13:11:46;;;;;;;1.73;1.50;;;6.30;95.40;;;;;;5072683;28;20399;-80
2021/01/13 13:14:12;;;;;;;2.20;1.10;;;7.10;99.90;;;;;;5072382;28;20736;-80
2021/01/13 13:16:42;;;;;;;2.00;1.40;;;6.20;97.80;;;;;;5071304;28;20387;-81
2021/01/13 13:19:08;;;;;;;1.30;0.90;;;6.30;93.90;;;;;;5071577;28;20375;-81
2021/01/13 13:21:34;;;;;;;1.40;1.00;;;6.10;96.40;;;;;;5070781;28;20384;-81